sensor_id;sensor_type;location;lat;lon;timestamp;temperature;humidity
19180;DHT22;9722;48.754;8.868;2023-05-21T00:03:20;14.70;97.60
19180;DHT22;9722;48.754;8.868;2023-05-21T00:06:41;14.70;97.80
19180;DHT22;9722;48.754;8.868;2023-05-21T00:10:01;14.70;98.00
19180;DHT22;9722;48.754;8.868;2023-05-21T00:13:22;14.70;98.00
19180;DHT22;9722;48.754;8.868;2023-05-21T00:16:42;14.60;98.20
19180;DHT22;9722;48.754;8.868;2023-05-21T00:20:04;14.60;98.30
19180;DHT22;9722;48.754;8.868;2023-05-21T00:23:26;14.50;98.50
19180;DHT22;9722;48.754;8.868;2023-05-21T00:26:47;14.50;98.60
19180;DHT22;9722;48.754;8.868;2023-05-21T00:30:08;14.50;98.80
19180;DHT22;9722;48.754;8.868;2023-05-21T00:33:28;14.50;98.80
19180;DHT22;9722;48.754;8.868;2023-05-21T00:36:50;14.40;98.90
19180;DHT22;9722;48.754;8.868;2023-05-21T00:40:12;14.40;99.10
19180;DHT22;9722;48.754;8.868;2023-05-21T00:43:33;14.40;99.20
19180;DHT22;9722;48.754;8.868;2023-05-21T00:46:53;14.40;99.30
19180;DHT22;9722;48.754;8.868;2023-05-21T00:50:14;14.40;99.40
19180;DHT22;9722;48.754;8.868;2023-05-21T00:53:35;14.30;99.50
19180;DHT22;9722;48.754;8.868;2023-05-21T00:56:56;14.20;99.60
19180;DHT22;9722;48.754;8.868;2023-05-21T01:00:17;14.20;99.80
19180;DHT22;9722;48.754;8.868;2023-05-21T01:03:38;14.10;99.90
19180;DHT22;9722;48.754;8.868;2023-05-21T01:07:00;14.10;99.90
19180;DHT22;9722;48.754;8.868;2023-05-21T01:10:21;14.00;99.90
19180;DHT22;9722;48.754;8.868;2023-05-21T01:13:42;14.00;99.90
19180;DHT22;9722;48.754;8.868;2023-05-21T01:17:04;14.00;99.90
19180;DHT22;9722;48.754;8.868;2023-05-21T01:20:26;13.90;99.90
19180;DHT22;9722;48.754;8.868;2023-05-21T01:23:47;13.90;99.90
19180;DHT22;9722;48.754;8.868;2023-05-21T01:27:08;13.80;99.90
19180;DHT22;9722;48.754;8.868;2023-05-21T01:30:29;13.80;99.90
19180;DHT22;9722;48.754;8.868;2023-05-21T01:33:51;13.80;99.90
19180;DHT22;9722;48.754;8.868;2023-05-21T01:37:36;13.80;99.90
19180;DHT22;9722;48.754;8.868;2023-05-21T01:41:02;13.70;99.90
19180;DHT22;9722;48.754;8.868;2023-05-21T01:44:24;13.70;99.90
19180;DHT22;9722;48.754;8.868;2023-05-21T01:47:46;13.70;99.90
19180;DHT22;9722;48.754;8.868;2023-05-21T01:51:08;13.60;99.90
19180;DHT22;9722;48.754;8.868;2023-05-21T01:54:29;13.60;99.90
19180;DHT22;9722;48.754;8.868;2023-05-21T01:57:54;13.60;99.90
19180;DHT22;9722;48.754;8.868;2023-05-21T02:01:15;13.60;99.90
19180;DHT22;9722;48.754;8.868;2023-05-21T02:04:35;13.60;99.90
19180;DHT22;9722;48.754;8.868;2023-05-21T02:07:57;13.60;99.90
19180;DHT22;9722;48.754;8.868;2023-05-21T02:11:19;13.60;99.90
19180;DHT22;9722;48.754;8.868;2023-05-21T02:14:40;13.60;99.90
19180;DHT22;9722;48.754;8.868;2023-05-21T02:18:01;13.60;99.90
19180;DHT22;9722;48.754;8.868;2023-05-21T02:21:22;13.60;99.90
19180;DHT22;9722;48.754;8.868;2023-05-21T02:24:42;13.60;99.90
19180;DHT22;9722;48.754;8.868;2023-05-21T02:28:03;13.60;99.90
19180;DHT22;9722;48.754;8.868;2023-05-21T02:31:23;13.50;99.90
19180;DHT22;9722;48.754;8.868;2023-05-21T02:34:44;13.60;99.90
19180;DHT22;9722;48.754;8.868;2023-05-21T02:38:06;13.50;99.90
19180;DHT22;9722;48.754;8.868;2023-05-21T02:41:28;13.50;99.90
19180;DHT22;9722;48.754;8.868;2023-05-21T02:44:49;13.50;99.90
19180;DHT22;9722;48.754;8.868;2023-05-21T02:48:10;13.50;99.90
19180;DHT22;9722;48.754;8.868;2023-05-21T02:51:31;13.50;99.90
19180;DHT22;9722;48.754;8.868;2023-05-21T02:54:51;13.50;99.90
19180;DHT22;9722;48.754;8.868;2023-05-21T02:58:12;13.40;99.90
19180;DHT22;9722;48.754;8.868;2023-05-21T03:01:34;13.40;99.90
19180;DHT22;9722;48.754;8.868;2023-05-21T03:04:54;13.40;99.90
19180;DHT22;9722;48.754;8.868;2023-05-21T03:08:15;13.40;99.90
19180;DHT22;9722;48.754;8.868;2023-05-21T03:11:36;13.40;99.90
19180;DHT22;9722;48.754;8.868;2023-05-21T03:14:56;13.40;99.90
19180;DHT22;9722;48.754;8.868;2023-05-21T03:18:17;13.30;99.90
19180;DHT22;9722;48.754;8.868;2023-05-21T03:21:37;13.30;99.90
19180;DHT22;9722;48.754;8.868;2023-05-21T03:24:59;13.30;99.90
19180;DHT22;9722;48.754;8.868;2023-05-21T03:28:21;13.30;99.90
19180;DHT22;9722;48.754;8.868;2023-05-21T03:31:41;13.20;99.90
19180;DHT22;9722;48.754;8.868;2023-05-21T03:35:02;13.20;99.90
19180;DHT22;9722;48.754;8.868;2023-05-21T03:38:22;13.20;99.90
19180;DHT22;9722;48.754;8.868;2023-05-21T03:41:43;13.20;99.90
19180;DHT22;9722;48.754;8.868;2023-05-21T03:45:04;13.10;99.90
19180;DHT22;9722;48.754;8.868;2023-05-21T03:48:25;13.10;99.90
19180;DHT22;9722;48.754;8.868;2023-05-21T03:51:46;13.10;99.90
19180;DHT22;9722;48.754;8.868;2023-05-21T03:55:06;13.00;99.90
19180;DHT22;9722;48.754;8.868;2023-05-21T03:58:27;13.00;99.90
19180;DHT22;9722;48.754;8.868;2023-05-21T04:01:48;13.00;99.90
19180;DHT22;9722;48.754;8.868;2023-05-21T04:05:08;13.00;99.90
19180;DHT22;9722;48.754;8.868;2023-05-21T04:08:29;13.00;99.90
19180;DHT22;9722;48.754;8.868;2023-05-21T04:11:50;13.00;99.90
19180;DHT22;9722;48.754;8.868;2023-05-21T04:15:10;13.00;99.90
19180;DHT22;9722;48.754;8.868;2023-05-21T04:18:31;13.10;99.90
19180;DHT22;9722;48.754;8.868;2023-05-21T04:21:53;13.10;99.90
19180;DHT22;9722;48.754;8.868;2023-05-21T04:25:13;13.10;99.90
19180;DHT22;9722;48.754;8.868;2023-05-21T04:28:34;13.20;99.90
19180;DHT22;9722;48.754;8.868;2023-05-21T04:31:55;13.20;99.90
19180;DHT22;9722;48.754;8.868;2023-05-21T04:35:16;13.20;99.90
19180;DHT22;9722;48.754;8.868;2023-05-21T04:38:37;13.30;99.90
19180;DHT22;9722;48.754;8.868;2023-05-21T04:41:59;13.40;99.90
19180;DHT22;9722;48.754;8.868;2023-05-21T04:45:21;13.40;99.90
19180;DHT22;9722;48.754;8.868;2023-05-21T04:48:43;13.50;99.90
19180;DHT22;9722;48.754;8.868;2023-05-21T04:52:04;13.60;99.90
19180;DHT22;9722;48.754;8.868;2023-05-21T04:55:24;13.60;99.90
19180;DHT22;9722;48.754;8.868;2023-05-21T04:58:46;13.70;99.90
19180;DHT22;9722;48.754;8.868;2023-05-21T05:02:08;13.90;99.90
19180;DHT22;9722;48.754;8.868;2023-05-21T05:05:28;14.00;99.90
19180;DHT22;9722;48.754;8.868;2023-05-21T05:08:49;14.10;99.90
19180;DHT22;9722;48.754;8.868;2023-05-21T05:12:10;14.20;99.90
19180;DHT22;9722;48.754;8.868;2023-05-21T05:15:30;14.40;99.90
19180;DHT22;9722;48.754;8.868;2023-05-21T05:18:51;14.50;99.90
19180;DHT22;9722;48.754;8.868;2023-05-21T05:22:12;14.60;99.90
19180;DHT22;9722;48.754;8.868;2023-05-21T05:25:32;14.70;99.90
19180;DHT22;9722;48.754;8.868;2023-05-21T05:28:53;14.80;99.90
19180;DHT22;9722;48.754;8.868;2023-05-21T05:32:13;15.00;99.90
19180;DHT22;9722;48.754;8.868;2023-05-21T05:35:34;15.10;99.90
19180;DHT22;9722;48.754;8.868;2023-05-21T05:38:55;15.30;99.90
19180;DHT22;9722;48.754;8.868;2023-05-21T05:42:16;15.40;99.90
19180;DHT22;9722;48.754;8.868;2023-05-21T05:45:36;15.50;99.90
19180;DHT22;9722;48.754;8.868;2023-05-21T05:48:57;15.70;99.90
19180;DHT22;9722;48.754;8.868;2023-05-21T05:52:18;15.80;99.90
19180;DHT22;9722;48.754;8.868;2023-05-21T05:55:39;16.00;99.90
19180;DHT22;9722;48.754;8.868;2023-05-21T05:59:00;16.20;99.90
19180;DHT22;9722;48.754;8.868;2023-05-21T06:02:20;16.50;99.90
19180;DHT22;9722;48.754;8.868;2023-05-21T06:05:41;16.70;99.50
19180;DHT22;9722;48.754;8.868;2023-05-21T06:09:02;16.90;99.10
19180;DHT22;9722;48.754;8.868;2023-05-21T06:12:24;17.20;98.70
19180;DHT22;9722;48.754;8.868;2023-05-21T06:15:45;17.50;97.90
19180;DHT22;9722;48.754;8.868;2023-05-21T06:19:05;17.90;97.20
19180;DHT22;9722;48.754;8.868;2023-05-21T06:22:26;18.30;96.50
19180;DHT22;9722;48.754;8.868;2023-05-21T06:25:47;18.70;95.60
19180;DHT22;9722;48.754;8.868;2023-05-21T06:29:07;19.10;94.70
19180;DHT22;9722;48.754;8.868;2023-05-21T06:32:28;19.70;93.60
19180;DHT22;9722;48.754;8.868;2023-05-21T06:35:48;20.20;92.30
19180;DHT22;9722;48.754;8.868;2023-05-21T06:39:09;20.70;91.00
19180;DHT22;9722;48.754;8.868;2023-05-21T06:42:29;21.20;89.40
19180;DHT22;9722;48.754;8.868;2023-05-21T06:45:50;21.70;86.60
19180;DHT22;9722;48.754;8.868;2023-05-21T06:49:11;22.10;83.60
19180;DHT22;9722;48.754;8.868;2023-05-21T06:52:32;22.40;81.70
19180;DHT22;9722;48.754;8.868;2023-05-21T06:55:53;22.60;79.50
19180;DHT22;9722;48.754;8.868;2023-05-21T06:59:14;22.90;78.00
19180;DHT22;9722;48.754;8.868;2023-05-21T07:02:34;23.10;76.10
19180;DHT22;9722;48.754;8.868;2023-05-21T07:05:56;23.40;74.80
19180;DHT22;9722;48.754;8.868;2023-05-21T07:09:17;23.90;73.40
19180;DHT22;9722;48.754;8.868;2023-05-21T07:12:38;24.30;71.20
19180;DHT22;9722;48.754;8.868;2023-05-21T07:16:00;24.90;68.90
19180;DHT22;9722;48.754;8.868;2023-05-21T07:19:20;25.30;66.40
19180;DHT22;9722;48.754;8.868;2023-05-21T07:22:42;25.90;63.90
19180;DHT22;9722;48.754;8.868;2023-05-21T07:26:03;26.30;60.80
19180;DHT22;9722;48.754;8.868;2023-05-21T07:29:24;26.60;58.80
19180;DHT22;9722;48.754;8.868;2023-05-21T07:32:45;26.80;58.20
19180;DHT22;9722;48.754;8.868;2023-05-21T07:36:09;27.20;57.90
19180;DHT22;9722;48.754;8.868;2023-05-21T07:39:30;27.50;56.40
19180;DHT22;9722;48.754;8.868;2023-05-21T07:42:51;27.60;55.30
19180;DHT22;9722;48.754;8.868;2023-05-21T07:46:14;27.50;55.30
19180;DHT22;9722;48.754;8.868;2023-05-21T07:49:35;27.70;54.90
19180;DHT22;9722;48.754;8.868;2023-05-21T07:52:55;28.00;54.30
19180;DHT22;9722;48.754;8.868;2023-05-21T07:56:16;28.30;54.20
19180;DHT22;9722;48.754;8.868;2023-05-21T07:59:36;28.70;53.50
19180;DHT22;9722;48.754;8.868;2023-05-21T08:02:57;29.30;52.80
19180;DHT22;9722;48.754;8.868;2023-05-21T08:06:17;29.70;52.00
19180;DHT22;9722;48.754;8.868;2023-05-21T08:09:38;30.00;51.10
19180;DHT22;9722;48.754;8.868;2023-05-21T08:12:58;30.20;50.50
19180;DHT22;9722;48.754;8.868;2023-05-21T08:16:19;30.40;49.70
19180;DHT22;9722;48.754;8.868;2023-05-21T08:19:40;30.70;48.90
19180;DHT22;9722;48.754;8.868;2023-05-21T08:23:01;30.90;48.50
19180;DHT22;9722;48.754;8.868;2023-05-21T08:26:21;31.00;47.90
19180;DHT22;9722;48.754;8.868;2023-05-21T08:29:42;30.90;47.00
19180;DHT22;9722;48.754;8.868;2023-05-21T08:33:03;30.50;46.50
19180;DHT22;9722;48.754;8.868;2023-05-21T08:36:23;30.00;47.20
19180;DHT22;9722;48.754;8.868;2023-05-21T08:39:44;29.60;47.90
19180;DHT22;9722;48.754;8.868;2023-05-21T08:43:04;29.20;48.30
19180;DHT22;9722;48.754;8.868;2023-05-21T08:46:29;28.80;49.00
19180;DHT22;9722;48.754;8.868;2023-05-21T08:49:51;28.30;49.30
19180;DHT22;9722;48.754;8.868;2023-05-21T08:53:12;27.90;50.50
19180;DHT22;9722;48.754;8.868;2023-05-21T08:56:33;27.60;51.40
19180;DHT22;9722;48.754;8.868;2023-05-21T08:59:54;27.40;52.00
19180;DHT22;9722;48.754;8.868;2023-05-21T09:03:15;27.30;51.60
19180;DHT22;9722;48.754;8.868;2023-05-21T09:06:36;27.20;51.50
19180;DHT22;9722;48.754;8.868;2023-05-21T09:10:02;27.40;51.00
19180;DHT22;9722;48.754;8.868;2023-05-21T09:13:24;27.70;50.30
19180;DHT22;9722;48.754;8.868;2023-05-21T09:16:46;28.00;50.20
19180;DHT22;9722;48.754;8.868;2023-05-21T09:20:14;28.30;50.00
19180;DHT22;9722;48.754;8.868;2023-05-21T09:23:37;28.50;49.70
19180;DHT22;9722;48.754;8.868;2023-05-21T09:26:58;28.60;49.10
19180;DHT22;9722;48.754;8.868;2023-05-21T09:30:19;28.80;48.40
19180;DHT22;9722;48.754;8.868;2023-05-21T09:33:46;29.20;47.50
19180;DHT22;9722;48.754;8.868;2023-05-21T09:37:08;29.60;46.80
19180;DHT22;9722;48.754;8.868;2023-05-21T09:40:28;29.90;46.30
19180;DHT22;9722;48.754;8.868;2023-05-21T09:43:49;30.10;46.10
19180;DHT22;9722;48.754;8.868;2023-05-21T09:47:10;30.30;45.70
19180;DHT22;9722;48.754;8.868;2023-05-21T09:50:34;30.50;45.50
19180;DHT22;9722;48.754;8.868;2023-05-21T09:53:56;30.90;45.10
19180;DHT22;9722;48.754;8.868;2023-05-21T09:57:24;31.40;44.50
19180;DHT22;9722;48.754;8.868;2023-05-21T10:00:45;32.20;43.80
19180;DHT22;9722;48.754;8.868;2023-05-21T10:04:06;32.90;43.80
19180;DHT22;9722;48.754;8.868;2023-05-21T10:07:28;33.40;43.50
19180;DHT22;9722;48.754;8.868;2023-05-21T10:10:49;34.10;42.70
19180;DHT22;9722;48.754;8.868;2023-05-21T10:14:18;34.70;41.80
19180;DHT22;9722;48.754;8.868;2023-05-21T10:17:40;35.40;40.30
19180;DHT22;9722;48.754;8.868;2023-05-21T10:21:02;36.10;39.80
19180;DHT22;9722;48.754;8.868;2023-05-21T10:24:23;36.90;38.80
19180;DHT22;9722;48.754;8.868;2023-05-21T10:27:45;37.60;37.50
19180;DHT22;9722;48.754;8.868;2023-05-21T10:31:07;38.30;36.60
19180;DHT22;9722;48.754;8.868;2023-05-21T10:34:28;38.70;36.20
19180;DHT22;9722;48.754;8.868;2023-05-21T10:37:51;38.40;35.70
19180;DHT22;9722;48.754;8.868;2023-05-21T10:41:14;37.60;36.30
19180;DHT22;9722;48.754;8.868;2023-05-21T10:48:34;35.60;38.20
19180;DHT22;9722;48.754;8.868;2023-05-21T10:55:37;33.60;40.10
19180;DHT22;9722;48.754;8.868;2023-05-21T11:02:41;32.50;41.40
19180;DHT22;9722;48.754;8.868;2023-05-21T11:06:02;32.50;41.80
19180;DHT22;9722;48.754;8.868;2023-05-21T11:09:26;33.10;41.90
19180;DHT22;9722;48.754;8.868;2023-05-21T11:16:25;35.20;38.90
19180;DHT22;9722;48.754;8.868;2023-05-21T11:19:47;36.20;38.10
19180;DHT22;9722;48.754;8.868;2023-05-21T11:23:10;37.00;36.80
19180;DHT22;9722;48.754;8.868;2023-05-21T11:30:15;38.80;34.20
19180;DHT22;9722;48.754;8.868;2023-05-21T11:33:36;39.50;33.30
19180;DHT22;9722;48.754;8.868;2023-05-21T11:41:02;40.50;32.00
19180;DHT22;9722;48.754;8.868;2023-05-21T11:44:41;40.70;31.40
19180;DHT22;9722;48.754;8.868;2023-05-21T11:48:02;41.10;31.20
19180;DHT22;9722;48.754;8.868;2023-05-21T11:51:24;41.30;30.60
19180;DHT22;9722;48.754;8.868;2023-05-21T11:54:46;41.40;30.40
19180;DHT22;9722;48.754;8.868;2023-05-21T11:58:12;41.10;30.10
19180;DHT22;9722;48.754;8.868;2023-05-21T12:01:35;40.90;30.20
19180;DHT22;9722;48.754;8.868;2023-05-21T12:04:56;41.00;30.00
19180;DHT22;9722;48.754;8.868;2023-05-21T12:08:22;40.90;30.10
19180;DHT22;9722;48.754;8.868;2023-05-21T12:11:46;40.70;30.30
19180;DHT22;9722;48.754;8.868;2023-05-21T12:15:07;40.40;30.20
19180;DHT22;9722;48.754;8.868;2023-05-21T12:18:29;40.30;30.10
19180;DHT22;9722;48.754;8.868;2023-05-21T12:21:50;40.20;30.10
19180;DHT22;9722;48.754;8.868;2023-05-21T12:25:10;40.00;30.20
19180;DHT22;9722;48.754;8.868;2023-05-21T12:28:31;39.80;30.30
19180;DHT22;9722;48.754;8.868;2023-05-21T12:31:52;39.40;30.30
19180;DHT22;9722;48.754;8.868;2023-05-21T12:35:22;38.90;30.60
19180;DHT22;9722;48.754;8.868;2023-05-21T12:38:43;38.20;31.00
19180;DHT22;9722;48.754;8.868;2023-05-21T12:42:06;37.60;31.80
19180;DHT22;9722;48.754;8.868;2023-05-21T12:45:30;37.00;32.30
19180;DHT22;9722;48.754;8.868;2023-05-21T12:48:53;36.70;32.80
19180;DHT22;9722;48.754;8.868;2023-05-21T12:52:18;36.40;33.20
19180;DHT22;9722;48.754;8.868;2023-05-21T12:55:40;36.10;34.10
19180;DHT22;9722;48.754;8.868;2023-05-21T12:59:00;35.90;33.60
19180;DHT22;9722;48.754;8.868;2023-05-21T13:02:25;35.80;33.50
19180;DHT22;9722;48.754;8.868;2023-05-21T13:05:46;35.60;33.80
19180;DHT22;9722;48.754;8.868;2023-05-21T13:09:07;35.50;33.60
19180;DHT22;9722;48.754;8.868;2023-05-21T13:12:29;35.40;34.40
19180;DHT22;9722;48.754;8.868;2023-05-21T13:15:49;35.30;33.90
19180;DHT22;9722;48.754;8.868;2023-05-21T13:19:10;35.00;34.30
19180;DHT22;9722;48.754;8.868;2023-05-21T13:22:30;34.70;34.30
19180;DHT22;9722;48.754;8.868;2023-05-21T13:25:51;34.30;33.90
19180;DHT22;9722;48.754;8.868;2023-05-21T13:29:11;33.90;34.50
19180;DHT22;9722;48.754;8.868;2023-05-21T13:32:35;33.40;35.00
19180;DHT22;9722;48.754;8.868;2023-05-21T13:35:55;32.90;35.10
19180;DHT22;9722;48.754;8.868;2023-05-21T13:39:16;32.40;35.80
19180;DHT22;9722;48.754;8.868;2023-05-21T13:42:37;32.10;36.50
19180;DHT22;9722;48.754;8.868;2023-05-21T13:45:57;31.60;36.90
19180;DHT22;9722;48.754;8.868;2023-05-21T13:49:18;31.30;37.50
19180;DHT22;9722;48.754;8.868;2023-05-21T13:52:39;30.90;37.80
19180;DHT22;9722;48.754;8.868;2023-05-21T13:56:00;30.60;38.00
19180;DHT22;9722;48.754;8.868;2023-05-21T13:59:20;30.30;38.30
19180;DHT22;9722;48.754;8.868;2023-05-21T14:02:42;30.10;38.20
19180;DHT22;9722;48.754;8.868;2023-05-21T14:06:02;29.80;38.90
19180;DHT22;9722;48.754;8.868;2023-05-21T14:09:23;29.50;39.20
19180;DHT22;9722;48.754;8.868;2023-05-21T14:12:46;29.30;39.30
19180;DHT22;9722;48.754;8.868;2023-05-21T14:16:07;28.90;40.00
19180;DHT22;9722;48.754;8.868;2023-05-21T14:19:28;28.70;41.00
19180;DHT22;9722;48.754;8.868;2023-05-21T14:22:48;28.60;41.50
19180;DHT22;9722;48.754;8.868;2023-05-21T14:26:09;28.50;41.60
19180;DHT22;9722;48.754;8.868;2023-05-21T14:29:29;28.30;41.80
19180;DHT22;9722;48.754;8.868;2023-05-21T14:32:50;28.20;42.10
19180;DHT22;9722;48.754;8.868;2023-05-21T14:36:10;27.90;42.90
19180;DHT22;9722;48.754;8.868;2023-05-21T14:39:31;27.80;43.20
19180;DHT22;9722;48.754;8.868;2023-05-21T14:42:51;27.60;43.80
19180;DHT22;9722;48.754;8.868;2023-05-21T14:46:12;27.50;44.30
19180;DHT22;9722;48.754;8.868;2023-05-21T14:49:32;27.40;44.50
19180;DHT22;9722;48.754;8.868;2023-05-21T14:52:53;27.30;44.80
19180;DHT22;9722;48.754;8.868;2023-05-21T14:56:13;27.20;45.20
19180;DHT22;9722;48.754;8.868;2023-05-21T14:59:34;27.10;45.00
19180;DHT22;9722;48.754;8.868;2023-05-21T15:02:54;26.90;45.10
19180;DHT22;9722;48.754;8.868;2023-05-21T15:06:15;26.80;45.10
19180;DHT22;9722;48.754;8.868;2023-05-21T15:09:36;26.60;45.30
19180;DHT22;9722;48.754;8.868;2023-05-21T15:12:56;26.50;45.30
19180;DHT22;9722;48.754;8.868;2023-05-21T15:16:17;26.40;45.70
19180;DHT22;9722;48.754;8.868;2023-05-21T15:19:37;26.30;46.10
19180;DHT22;9722;48.754;8.868;2023-05-21T15:22:59;26.20;46.90
19180;DHT22;9722;48.754;8.868;2023-05-21T15:26:20;26.10;46.20
19180;DHT22;9722;48.754;8.868;2023-05-21T15:29:41;26.00;46.30
19180;DHT22;9722;48.754;8.868;2023-05-21T15:33:01;25.90;46.30
19180;DHT22;9722;48.754;8.868;2023-05-21T15:36:22;25.90;46.30
19180;DHT22;9722;48.754;8.868;2023-05-21T15:39:43;25.80;46.70
19180;DHT22;9722;48.754;8.868;2023-05-21T15:43:04;25.80;47.20
19180;DHT22;9722;48.754;8.868;2023-05-21T15:46:24;25.80;47.70
19180;DHT22;9722;48.754;8.868;2023-05-21T15:49:45;25.80;48.20
19180;DHT22;9722;48.754;8.868;2023-05-21T15:53:05;25.80;48.70
19180;DHT22;9722;48.754;8.868;2023-05-21T15:56:26;25.90;49.00
19180;DHT22;9722;48.754;8.868;2023-05-21T15:59:47;25.90;49.00
19180;DHT22;9722;48.754;8.868;2023-05-21T16:03:07;25.90;50.20
19180;DHT22;9722;48.754;8.868;2023-05-21T16:06:28;25.90;49.70
19180;DHT22;9722;48.754;8.868;2023-05-21T16:09:49;25.90;49.60
19180;DHT22;9722;48.754;8.868;2023-05-21T16:13:09;25.90;49.80
19180;DHT22;9722;48.754;8.868;2023-05-21T16:16:30;25.90;49.90
19180;DHT22;9722;48.754;8.868;2023-05-21T16:19:50;25.70;50.20
19180;DHT22;9722;48.754;8.868;2023-05-21T16:23:11;25.70;50.60
19180;DHT22;9722;48.754;8.868;2023-05-21T16:26:32;25.60;51.30
19180;DHT22;9722;48.754;8.868;2023-05-21T16:29:52;25.60;51.80
19180;DHT22;9722;48.754;8.868;2023-05-21T16:33:13;25.50;52.00
19180;DHT22;9722;48.754;8.868;2023-05-21T16:36:33;25.40;52.00
19180;DHT22;9722;48.754;8.868;2023-05-21T16:39:56;25.40;52.10
19180;DHT22;9722;48.754;8.868;2023-05-21T16:43:17;25.30;52.40
19180;DHT22;9722;48.754;8.868;2023-05-21T16:46:37;25.30;53.10
19180;DHT22;9722;48.754;8.868;2023-05-21T16:49:58;25.30;53.60
19180;DHT22;9722;48.754;8.868;2023-05-21T16:53:20;25.20;53.80
19180;DHT22;9722;48.754;8.868;2023-05-21T16:56:40;25.20;54.20
19180;DHT22;9722;48.754;8.868;2023-05-21T17:00:04;25.10;54.10
19180;DHT22;9722;48.754;8.868;2023-05-21T17:03:26;25.10;54.30
19180;DHT22;9722;48.754;8.868;2023-05-21T17:06:47;25.00;54.60
19180;DHT22;9722;48.754;8.868;2023-05-21T17:10:08;25.00;54.90
19180;DHT22;9722;48.754;8.868;2023-05-21T17:13:29;24.90;55.00
19180;DHT22;9722;48.754;8.868;2023-05-21T17:16:50;24.90;55.30
19180;DHT22;9722;48.754;8.868;2023-05-21T17:20:11;24.90;55.00
19180;DHT22;9722;48.754;8.868;2023-05-21T17:23:31;24.80;54.90
19180;DHT22;9722;48.754;8.868;2023-05-21T17:26:52;24.80;54.90
19180;DHT22;9722;48.754;8.868;2023-05-21T17:30:13;24.70;54.80
19180;DHT22;9722;48.754;8.868;2023-05-21T17:33:33;24.70;54.80
19180;DHT22;9722;48.754;8.868;2023-05-21T17:36:55;24.60;54.90
19180;DHT22;9722;48.754;8.868;2023-05-21T17:40:16;24.50;55.50
19180;DHT22;9722;48.754;8.868;2023-05-21T17:43:39;24.50;55.60
19180;DHT22;9722;48.754;8.868;2023-05-21T17:47:00;24.40;56.10
19180;DHT22;9722;48.754;8.868;2023-05-21T17:50:20;24.20;56.40
19180;DHT22;9722;48.754;8.868;2023-05-21T17:53:41;24.00;56.70
19180;DHT22;9722;48.754;8.868;2023-05-21T17:57:01;23.90;57.00
19180;DHT22;9722;48.754;8.868;2023-05-21T18:00:22;23.60;57.00
19180;DHT22;9722;48.754;8.868;2023-05-21T18:03:42;23.50;57.40
19180;DHT22;9722;48.754;8.868;2023-05-21T18:07:03;23.20;57.70
19180;DHT22;9722;48.754;8.868;2023-05-21T18:10:24;23.00;58.10
19180;DHT22;9722;48.754;8.868;2023-05-21T18:13:44;22.80;58.10
19180;DHT22;9722;48.754;8.868;2023-05-21T18:17:05;22.60;58.70
19180;DHT22;9722;48.754;8.868;2023-05-21T18:20:25;22.40;59.20
19180;DHT22;9722;48.754;8.868;2023-05-21T18:23:46;22.20;59.60
19180;DHT22;9722;48.754;8.868;2023-05-21T18:27:06;22.00;60.00
19180;DHT22;9722;48.754;8.868;2023-05-21T18:30:27;21.80;60.70
19180;DHT22;9722;48.754;8.868;2023-05-21T18:33:47;21.60;61.20
19180;DHT22;9722;48.754;8.868;2023-05-21T18:37:09;21.50;62.10
19180;DHT22;9722;48.754;8.868;2023-05-21T18:40:30;21.30;62.60
19180;DHT22;9722;48.754;8.868;2023-05-21T18:43:52;21.20;63.30
19180;DHT22;9722;48.754;8.868;2023-05-21T18:47:12;21.00;63.80
19180;DHT22;9722;48.754;8.868;2023-05-21T18:50:33;20.80;64.50
19180;DHT22;9722;48.754;8.868;2023-05-21T18:53:56;20.70;65.30
19180;DHT22;9722;48.754;8.868;2023-05-21T18:57:17;20.50;66.20
19180;DHT22;9722;48.754;8.868;2023-05-21T19:00:38;20.40;67.00
19180;DHT22;9722;48.754;8.868;2023-05-21T19:03:58;20.30;67.80
19180;DHT22;9722;48.754;8.868;2023-05-21T19:07:19;20.10;68.70
19180;DHT22;9722;48.754;8.868;2023-05-21T19:10:39;19.90;69.30
19180;DHT22;9722;48.754;8.868;2023-05-21T19:14:00;19.80;69.90
19180;DHT22;9722;48.754;8.868;2023-05-21T19:17:20;19.60;70.40
19180;DHT22;9722;48.754;8.868;2023-05-21T19:20:41;19.40;70.80
19180;DHT22;9722;48.754;8.868;2023-05-21T19:24:02;19.20;71.30
19180;DHT22;9722;48.754;8.868;2023-05-21T19:27:22;19.10;71.90
19180;DHT22;9722;48.754;8.868;2023-05-21T19:30:43;18.90;72.50
19180;DHT22;9722;48.754;8.868;2023-05-21T19:34:03;18.70;73.30
19180;DHT22;9722;48.754;8.868;2023-05-21T19:37:29;18.50;73.90
19180;DHT22;9722;48.754;8.868;2023-05-21T19:40:50;18.40;74.70
19180;DHT22;9722;48.754;8.868;2023-05-21T19:44:11;18.20;75.40
19180;DHT22;9722;48.754;8.868;2023-05-21T19:47:31;18.10;76.20
19180;DHT22;9722;48.754;8.868;2023-05-21T19:50:52;17.90;76.90
19180;DHT22;9722;48.754;8.868;2023-05-21T19:54:12;17.80;77.30
19180;DHT22;9722;48.754;8.868;2023-05-21T19:57:33;17.70;78.10
19180;DHT22;9722;48.754;8.868;2023-05-21T20:00:54;17.50;78.70
19180;DHT22;9722;48.754;8.868;2023-05-21T20:04:15;17.40;79.40
19180;DHT22;9722;48.754;8.868;2023-05-21T20:07:35;17.40;80.40
19180;DHT22;9722;48.754;8.868;2023-05-21T20:10:56;17.40;81.10
19180;DHT22;9722;48.754;8.868;2023-05-21T20:14:16;17.20;81.40
19180;DHT22;9722;48.754;8.868;2023-05-21T20:17:37;17.20;82.10
19180;DHT22;9722;48.754;8.868;2023-05-21T20:20:57;17.10;82.40
19180;DHT22;9722;48.754;8.868;2023-05-21T20:24:18;17.00;82.80
19180;DHT22;9722;48.754;8.868;2023-05-21T20:27:39;16.90;83.30
19180;DHT22;9722;48.754;8.868;2023-05-21T20:31:00;16.80;83.80
19180;DHT22;9722;48.754;8.868;2023-05-21T20:34:21;16.80;84.40
19180;DHT22;9722;48.754;8.868;2023-05-21T20:37:42;16.70;85.00
19180;DHT22;9722;48.754;8.868;2023-05-21T20:41:03;16.60;85.60
19180;DHT22;9722;48.754;8.868;2023-05-21T20:44:24;16.50;86.40
19180;DHT22;9722;48.754;8.868;2023-05-21T20:47:46;16.40;87.20
19180;DHT22;9722;48.754;8.868;2023-05-21T20:51:08;16.40;87.70
19180;DHT22;9722;48.754;8.868;2023-05-21T20:54:29;16.30;88.30
19180;DHT22;9722;48.754;8.868;2023-05-21T20:57:50;16.20;88.80
19180;DHT22;9722;48.754;8.868;2023-05-21T21:01:11;16.10;89.50
19180;DHT22;9722;48.754;8.868;2023-05-21T21:04:33;16.00;90.00
19180;DHT22;9722;48.754;8.868;2023-05-21T21:07:54;15.90;90.40
19180;DHT22;9722;48.754;8.868;2023-05-21T21:11:15;15.70;90.80
19180;DHT22;9722;48.754;8.868;2023-05-21T21:14:35;15.60;91.30
19180;DHT22;9722;48.754;8.868;2023-05-21T21:17:56;15.50;91.70
19180;DHT22;9722;48.754;8.868;2023-05-21T21:21:16;15.40;92.10
19180;DHT22;9722;48.754;8.868;2023-05-21T21:24:37;15.30;92.50
19180;DHT22;9722;48.754;8.868;2023-05-21T21:27:57;15.20;92.90
19180;DHT22;9722;48.754;8.868;2023-05-21T21:31:18;15.20;93.30
19180;DHT22;9722;48.754;8.868;2023-05-21T21:34:39;15.10;93.70
19180;DHT22;9722;48.754;8.868;2023-05-21T21:38:01;15.10;94.20
19180;DHT22;9722;48.754;8.868;2023-05-21T21:41:24;15.10;94.50
19180;DHT22;9722;48.754;8.868;2023-05-21T21:44:45;15.00;94.80
19180;DHT22;9722;48.754;8.868;2023-05-21T21:48:05;15.00;95.20
19180;DHT22;9722;48.754;8.868;2023-05-21T21:51:26;14.90;95.60
19180;DHT22;9722;48.754;8.868;2023-05-21T21:54:46;14.90;96.00